Time;durP1;ratioP1;P1;durP2;ratioP2;P2;SDS_P1;SDS_P2;PMS_P1;PMS_P2;Temp;Humidity;BMP_temperature;BMP_pressure;BME280_temperature;BME280_humidity;BME280_pressure;Samples;Min_cycle;Max_cycle;Signal;HPM_P1;HPM_P2
2022/07/04 00:00:28;;;;;;;;;;;;;;;24.08;49.36;100918.25;7407116;19;1764;-37
2022/07/04 00:02:56;;;;;;;;;;;;;;;24.08;49.31;100917.44;7404283;19;1732;-36
2022/07/04 00:05:24;;;;;;;;;;;;;;;24.06;49.19;100919.44;7404708;19;2035;-36
2022/07/04 00:07:55;;;;;;;;;;;;;;;24.03;49.07;100917.91;7407340;19;1676;-36
2022/07/04 00:10:24;;;;;;;;;;;;;;;24.04;49.29;100916.91;7405692;19;1804;-36
2022/07/04 00:12:52;;;;;;;;;;;;;;;24.01;49.42;100914.53;7403660;19;1937;-36
2022/07/04 00:15:20;;;;;;;;;;;;;;;23.95;49.33;100913.31;7405679;19;1516;-36
2022/07/04 00:17:49;;;;;;;;;;;;;;;23.92;50.14;100912.84;7405884;19;1963;-36
2022/07/04 00:20:17;;;;;;;;;;;;;;;23.90;48.94;100921.09;7405708;19;1685;-36
2022/07/04 00:22:46;;;;;;;;;;;;;;;23.92;49.04;100910.13;7405792;19;1636;-36
2022/07/04 00:25:17;;;;;;;;;;;;;;;23.99;50.24;100913.84;7406209;19;1647;-36
2022/07/04 00:27:45;;;;;;;;;;;;;;;24.02;49.94;100913.53;7406316;19;1822;-36
2022/07/04 00:30:14;;;;;;;;;;;;;;;24.00;49.93;100907.44;7405102;19;1796;-36
2022/07/04 00:32:42;;;;;;;;;;;;;;;23.97;49.83;100911.34;7403068;19;1943;-36
2022/07/04 00:35:11;;;;;;;;;;;;;;;24.01;50.07;100896.47;7405717;19;1675;-36
2022/07/04 00:37:39;;;;;;;;;;;;;;;23.99;49.83;100913.84;7406365;19;1932;-37
2022/07/04 00:40:08;;;;;;;;;;;;;;;23.95;50.16;100901.69;7405548;19;1663;-36
2022/07/04 00:42:39;;;;;;;;;;;;;;;23.92;49.71;100896.63;7404604;19;1779;-36
2022/07/04 00:45:07;;;;;;;;;;;;;;;23.99;50.04;100903.03;7403354;19;1400;-36
2022/07/04 00:47:36;;;;;;;;;;;;;;;24.01;50.04;100911.81;7400999;19;1831;-36
2022/07/04 00:50:04;;;;;;;;;;;;;;;24.06;49.95;100928.41;7404731;19;1367;-36
2022/07/04 00:52:33;;;;;;;;;;;;;;;24.06;50.21;100925.69;7403798;19;1859;-36
2022/07/04 00:55:02;;;;;;;;;;;;;;;24.02;49.71;100918.94;7403093;19;1564;-36
2022/07/04 00:57:31;;;;;;;;;;;;;;;23.96;49.96;100908.78;7404909;19;1606;-36
2022/07/04 01:00:01;;;;;;;;;;;;;;;23.95;49.97;100905.22;7406522;19;1846;-36
2022/07/04 01:02:30;;;;;;;;;;;;;;;23.99;49.88;100911.16;7402616;19;1873;-35
2022/07/04 01:04:58;;;;;;;;;;;;;;;23.91;49.71;100908.44;7404190;19;1722;-36
2022/07/04 01:07:27;;;;;;;;;;;;;;;23.93;49.98;100895.59;7404524;19;1683;-36
2022/07/04 01:09:55;;;;;;;;;;;;;;;23.90;50.07;100890.53;7403167;19;1948;-36
2022/07/04 01:12:27;;;;;;;;;;;;;;;23.97;50.22;100895.13;7402566;19;1868;-36
2022/07/04 01:14:55;;;;;;;;;;;;;;;23.99;50.26;100897.63;7403005;19;1674;-36
2022/07/04 01:17:26;;;;;;;;;;;;;;;23.98;50.14;100896.81;7403737;19;1591;-36
2022/07/04 01:19:54;;;;;;;;;;;;;;;23.97;50.19;100902.34;7405347;19;1756;-36
2022/07/04 01:22:25;;;;;;;;;;;;;;;23.96;50.16;100906.09;7406990;19;1993;-36
2022/07/04 01:24:53;;;;;;;;;;;;;;;23.99;50.07;100903.91;7403999;19;2030;-35
2022/07/04 01:27:22;;;;;;;;;;;;;;;23.77;50.34;100909.88;7403797;19;1650;-36
2022/07/04 01:29:50;;;;;;;;;;;;;;;23.56;50.55;100897.66;7403048;19;1917;-36
2022/07/04 01:32:18;;;;;;;;;;;;;;;23.59;50.38;100918.06;7401704;19;1849;-36
2022/07/04 01:34:46;;;;;;;;;;;;;;;23.53;50.50;100910.63;7404510;19;1741;-36
2022/07/04 01:37:15;;;;;;;;;;;;;;;23.60;50.04;100904.41;7403035;19;1701;-36
2022/07/04 01:39:46;;;;;;;;;;;;;;;23.75;49.83;100907.31;7402538;19;1773;-36
2022/07/04 01:42:14;;;;;;;;;;;;;;;23.77;50.08;100915.25;7403075;19;1768;-36
2022/07/04 01:44:43;;;;;;;;;;;;;;;23.69;50.14;100907.97;7402226;19;1659;-36
2022/07/04 01:47:11;;;;;;;;;;;;;;;23.65;50.14;100903.09;7402477;19;1767;-36
2022/07/04 01:49:40;;;;;;;;;;;;;;;23.66;50.12;100902.91;7404523;19;1005;-36
2022/07/04 01:52:08;;;;;;;;;;;;;;;23.75;50.27;100904.63;7401937;19;1909;-36
2022/07/04 01:54:37;;;;;;;;;;;;;;;23.80;50.24;100909.59;7402451;19;1700;-36
2022/07/04 01:57:08;;;;;;;;;;;;;;;23.85;50.66;100917.19;7401116;19;1454;-35
2022/07/04 02:02:28;;;;;;;;;;;;;;;23.75;50.44;100917.28;7376267;19;3314;-37
2022/07/04 02:07:48;;;;;;;;;;;;;;;23.76;50.43;100925.22;7395823;19;1685;-36
2022/07/04 02:10:20;;;;;;;;;;;;;;;23.74;50.24;100916.44;7399943;19;1539;-36
2022/07/04 02:13:06;;;;;;;;;;;;;;;23.75;50.04;100914.59;7397815;19;1896;-36
2022/07/04 02:15:48;;;;;;;;;;;;;;;23.77;50.23;100910.72;7401592;19;1692;-36
2022/07/04 02:18:18;;;;;;;;;;;;;;;23.79;50.13;100930.31;7403230;19;1821;-36
2022/07/04 02:20:51;;;;;;;;;;;;;;;23.79;50.15;100935.72;7401530;19;1891;-36
2022/07/04 02:23:21;;;;;;;;;;;;;;;23.61;50.79;100924.16;7400232;19;1649;-36
2022/07/04 02:25:59;;;;;;;;;;;;;;;23.53;50.95;100940.31;7402465;19;1800;-36
2022/07/04 02:28:34;;;;;;;;;;;;;;;23.53;50.40;100940.31;7401226;19;1963;-36
2022/07/04 02:31:04;;;;;;;;;;;;;;;23.39;50.63;100939.06;7402933;19;1821;-36
2022/07/04 02:33:34;;;;;;;;;;;;;;;23.42;50.48;100933.34;7399800;19;1856;-36
2022/07/04 02:36:24;;;;;;;;;;;;;;;23.45;49.90;100926.78;7400434;19;1418;-36
2022/07/04 02:38:52;;;;;;;;;;;;;;;23.46;50.09;100934.72;7400983;19;1626;-36
2022/07/04 02:41:21;;;;;;;;;;;;;;;23.61;50.10;100943.88;7395693;19;1916;-36
2022/07/04 02:43:51;;;;;;;;;;;;;;;23.63;50.49;100931.09;7400743;19;1577;-36
2022/07/04 02:46:20;;;;;;;;;;;;;;;23.69;50.28;100926.88;7399831;19;1627;-36
2022/07/04 02:48:48;;;;;;;;;;;;;;;23.65;50.43;100932.78;7400148;19;1370;-36
2022/07/04 02:51:20;;;;;;;;;;;;;;;23.65;50.47;100935.47;7400008;19;1442;-36
2022/07/04 02:53:51;;;;;;;;;;;;;;;23.72;50.94;100958.97;7399794;19;1658;-36
2022/07/04 02:56:28;;;;;;;;;;;;;;;23.73;50.83;100940.91;7400778;19;2009;-36
2022/07/04 02:58:59;;;;;;;;;;;;;;;23.66;50.73;100938.03;7393767;19;1827;-36
2022/07/04 03:01:27;;;;;;;;;;;;;;;23.68;51.01;100938.69;7398448;19;1694;-36
2022/07/04 03:03:56;;;;;;;;;;;;;;;23.68;51.01;100949.50;7395799;19;1841;-37
2022/07/04 03:06:24;;;;;;;;;;;;;;;23.62;50.91;100936.66;7394800;19;1847;-36
2022/07/04 03:08:52;;;;;;;;;;;;;;;23.58;50.38;100956.88;7396581;19;1724;-36
2022/07/04 03:11:21;;;;;;;;;;;;;;;23.60;49.83;100939.50;7396493;19;1921;-36
2022/07/04 03:13:49;;;;;;;;;;;;;;;23.69;50.59;100945.78;7397703;19;1929;-36
2022/07/04 03:16:20;;;;;;;;;;;;;;;23.74;51.10;100953.41;7400407;19;1904;-36
2022/07/04 03:18:48;;;;;;;;;;;;;;;23.57;51.32;100934.41;7400807;19;2315;-35
2022/07/04 03:21:16;;;;;;;;;;;;;;;23.52;50.74;100938.63;7400769;19;1488;-36
2022/07/04 03:23:57;;;;;;;;;;;;;;;23.65;50.36;100947.13;7401486;19;1557;-36
2022/07/04 03:26:25;;;;;;;;;;;;;;;23.76;50.14;100957.63;7406659;19;1665;-36
2022/07/04 03:28:53;;;;;;;;;;;;;;;23.66;50.22;100943.41;7405937;19;1825;-36
2022/07/04 03:31:25;;;;;;;;;;;;;;;23.48;50.51;100937.28;7406957;19;1570;-35
2022/07/04 03:33:53;;;;;;;;;;;;;;;23.47;50.41;100943.66;7404309;19;1840;-36
2022/07/04 03:36:22;;;;;;;;;;;;;;;23.40;50.52;100930.81;7406208;19;1880;-36
2022/07/04 03:38:50;;;;;;;;;;;;;;;23.31;50.74;100941.72;7406798;19;1875;-36
2022/07/04 03:41:18;;;;;;;;;;;;;;;23.42;50.22;100944.16;7402774;19;2043;-36
2022/07/04 03:43:53;;;;;;;;;;;;;;;23.47;50.05;100946.34;7408056;19;1892;-36
2022/07/04 03:46:28;;;;;;;;;;;;;;;23.47;50.22;100952.59;7408435;19;1884;-35
2022/07/04 03:49:04;;;;;;;;;;;;;;;23.45;50.13;100956.47;7405536;19;1591;-36
2022/07/04 03:51:32;;;;;;;;;;;;;;;23.51;50.02;100953.13;7405637;19;1618;-35
2022/07/04 03:54:03;;;;;;;;;;;;;;;23.42;49.88;100939.59;7403804;19;1893;-36
2022/07/04 03:56:33;;;;;;;;;;;;;;;23.53;49.84;100945.72;7407802;19;1846;-35
2022/07/04 03:59:23;;;;;;;;;;;;;;;23.50;49.47;100948.75;7405713;19;1905;-35
2022/07/04 04:01:55;;;;;;;;;;;;;;;23.53;49.34;100949.25;7403157;19;1655;-36
2022/07/04 04:07:18;;;;;;;;;;;;;;;23.65;49.41;100940.88;7406412;19;1745;-36
2022/07/04 04:09:51;;;;;;;;;;;;;;;23.56;49.47;100946.25;7405704;19;1982;-36
2022/07/04 04:12:41;;;;;;;;;;;;;;;23.61;49.35;100938.47;7404984;19;1848;-35
2022/07/04 04:15:13;;;;;;;;;;;;;;;23.63;49.12;100943.72;7406261;19;1480;-36
2022/07/04 04:17:48;;;;;;;;;;;;;;;23.52;48.91;100934.06;7404473;19;1702;-36
2022/07/04 04:20:16;;;;;;;;;;;;;;;23.59;49.18;100939.66;7404070;19;1725;-36
2022/07/04 04:22:46;;;;;;;;;;;;;;;23.62;48.85;100932.09;7405506;19;1524;-36
2022/07/04 04:25:19;;;;;;;;;;;;;;;23.57;49.21;100939.81;7405072;19;1978;-36
2022/07/04 04:27:51;;;;;;;;;;;;;;;23.66;49.20;100947.97;7405911;19;1825;-36
2022/07/04 04:30:31;;;;;;;;;;;;;;;23.71;48.87;100943.75;7405436;19;1943;-36
2022/07/04 04:33:10;;;;;;;;;;;;;;;23.72;49.07;100939.22;7404502;19;2034;-36
2022/07/04 04:35:42;;;;;;;;;;;;;;;23.58;49.15;100927.19;7403818;19;1903;-36
2022/07/04 04:38:11;;;;;;;;;;;;;;;23.70;48.73;100946.66;7404453;19;1818;-36
2022/07/04 04:40:40;;;;;;;;;;;;;;;23.76;48.73;100946.84;7404521;19;1830;-36
2022/07/04 04:45:54;;;;;;;;;;;;;;;23.74;48.73;100951.56;7402553;19;2336;-36
2022/07/04 04:48:26;;;;;;;;;;;;;;;23.81;48.70;100962.56;7404730;19;1598;-36
2022/07/04 04:50:57;;;;;;;;;;;;;;;23.87;48.44;100948.41;7403256;19;1606;-36
2022/07/04 04:53:28;;;;;;;;;;;;;;;23.90;48.61;100960.75;7404395;19;1855;-36
2022/07/04 04:55:58;;;;;;;;;;;;;;;23.89;47.85;100957.19;7404004;19;1895;-36
2022/07/04 04:58:39;;;;;;;;;;;;;;;23.90;48.04;100955.38;7404149;19;1824;-36
2022/07/04 05:01:09;;;;;;;;;;;;;;;24.00;48.10;100948.81;7404716;19;1844;-36
2022/07/04 05:03:39;;;;;;;;;;;;;;;24.10;48.20;100958.63;7400773;19;1710;-36
2022/07/04 05:06:08;;;;;;;;;;;;;;;24.12;48.03;100960.16;7400993;19;2084;-37
2022/07/04 05:08:36;;;;;;;;;;;;;;;24.15;48.58;100957.13;7402144;19;2057;-37
2022/07/04 05:11:04;;;;;;;;;;;;;;;24.15;48.06;100953.56;7401531;19;1832;-36
2022/07/04 05:13:33;;;;;;;;;;;;;;;24.22;48.40;100957.31;7403188;19;1917;-37
2022/07/04 05:16:15;;;;;;;;;;;;;;;24.26;48.55;100957.81;7400235;19;1920;-36
2022/07/04 05:18:50;;;;;;;;;;;;;;;24.31;48.90;100963.56;7404369;19;1817;-36
2022/07/04 05:21:18;;;;;;;;;;;;;;;24.31;48.27;100971.66;7402976;19;1755;-36
2022/07/04 05:23:49;;;;;;;;;;;;;;;24.29;48.86;100968.28;7402751;19;1776;-36
2022/07/04 05:26:21;;;;;;;;;;;;;;;24.34;48.83;100960.53;7403436;19;1891;-36
2022/07/04 05:28:55;;;;;;;;;;;;;;;24.36;48.75;100963.94;7403522;19;1818;-37
2022/07/04 05:31:27;;;;;;;;;;;;;;;24.38;48.60;100965.44;7402380;19;1814;-36
2022/07/04 05:34:09;;;;;;;;;;;;;;;24.44;48.76;100961.22;7401127;19;1885;-36
2022/07/04 05:36:45;;;;;;;;;;;;;;;24.47;48.29;100954.63;7402097;19;1604;-37
2022/07/04 05:39:13;;;;;;;;;;;;;;;24.45;49.12;100968.31;7402480;19;1882;-36
2022/07/04 05:41:42;;;;;;;;;;;;;;;24.53;48.54;100968.38;7399016;19;1933;-38
2022/07/04 05:44:17;;;;;;;;;;;;;;;24.48;48.75;100965.28;7402467;19;1966;-36
2022/07/04 05:49:30;;;;;;;;;;;;;;;24.55;49.67;100971.75;7401027;19;2428;-36
2022/07/04 05:52:01;;;;;;;;;;;;;;;24.54;49.44;100967.34;7400124;19;1632;-37
2022/07/04 05:54:36;;;;;;;;;;;;;;;24.58;49.70;100966.00;7398107;19;1858;-36
2022/07/04 05:57:05;;;;;;;;;;;;;;;24.60;49.78;100963.97;7401395;19;1760;-35
2022/07/04 05:59:37;;;;;;;;;;;;;;;24.61;49.82;100962.97;7401878;19;1780;-33
2022/07/04 06:02:07;;;;;;;;;;;;;;;24.62;49.72;100961.13;7401759;19;1517;-34
2022/07/04 06:04:43;;;;;;;;;;;;;;;24.63;49.44;100964.66;7402718;19;1783;-34
2022/07/04 06:07:14;;;;;;;;;;;;;;;24.65;49.52;100968.03;7401631;19;1299;-36
2022/07/04 06:09:48;;;;;;;;;;;;;;;24.68;50.04;100965.00;7402300;19;1761;-35
2022/07/04 06:12:19;;;;;;;;;;;;;;;24.73;50.58;100965.34;7402089;19;1764;-36
2022/07/04 06:14:52;;;;;;;;;;;;;;;24.71;51.09;100956.53;7398768;19;2040;-36
2022/07/04 06:17:22;;;;;;;;;;;;;;;24.72;51.05;100963.66;7399801;19;1552;-37
2022/07/04 06:19:54;;;;;;;;;;;;;;;24.73;50.68;100968.03;7398511;19;1909;-36
2022/07/04 06:22:25;;;;;;;;;;;;;;;24.76;50.72;100976.66;7400640;19;1565;-36
2022/07/04 06:25:03;;;;;;;;;;;;;;;24.75;51.12;100964.16;7397680;19;1871;-36
2022/07/04 06:27:35;;;;;;;;;;;;;;;24.75;50.86;100964.16;7401151;19;1960;-36
2022/07/04 06:30:10;;;;;;;;;;;;;;;24.79;50.87;100967.38;7400594;19;1726;-36
2022/07/04 06:32:49;;;;;;;;;;;;;;;24.81;51.41;100968.06;7400994;19;1855;-36
2022/07/04 06:38:24;;;;;;;;;;;;;;;24.81;51.53;100959.94;7401737;19;1487;-35
2022/07/04 06:41:01;;;;;;;;;;;;;;;24.78;51.43;100949.44;7397660;19;1660;-35
2022/07/04 06:43:30;;;;;;;;;;;;;;;24.76;51.94;100949.63;7401371;19;1855;-35
2022/07/04 06:46:01;;;;;;;;;;;;;;;24.79;51.97;100952.00;7401034;19;1644;-35
2022/07/04 06:48:32;;;;;;;;;;;;;;;24.81;52.12;100958.09;7401763;19;1669;-35
2022/07/04 06:51:11;;;;;;;;;;;;;;;24.83;52.11;100949.81;7402009;19;1827;-35
2022/07/04 06:53:41;;;;;;;;;;;;;;;24.84;52.42;100946.06;7397664;19;1852;-36
2022/07/04 06:56:09;;;;;;;;;;;;;;;24.83;52.67;100938.13;7400204;19;1815;-35
2022/07/04 06:58:41;;;;;;;;;;;;;;;24.84;52.62;100948.78;7400539;19;1569;-35
2022/07/04 07:01:10;;;;;;;;;;;;;;;24.82;52.41;100939.97;7407328;19;1449;-35
2022/07/04 07:03:38;;;;;;;;;;;;;;;24.80;52.49;100936.59;7407339;19;1834;-35
2022/07/04 07:06:13;;;;;;;;;;;;;;;24.85;52.86;100938.78;7406152;19;1755;-36
2022/07/04 07:08:46;;;;;;;;;;;;;;;24.86;53.47;100937.78;7407828;19;1736;-35
2022/07/04 07:11:19;;;;;;;;;;;;;;;24.86;53.15;100949.44;7406843;19;1918;-35
2022/07/04 07:13:51;;;;;;;;;;;;;;;24.89;53.83;100954.53;7405475;19;1853;-35
2022/07/04 07:16:26;;;;;;;;;;;;;;;24.82;53.71;100921.03;7407430;19;1620;-35
2022/07/04 07:18:57;;;;;;;;;;;;;;;24.85;53.75;100947.78;7407856;19;1714;-35
2022/07/04 07:21:37;;;;;;;;;;;;;;;24.86;53.89;100935.91;7407300;19;1414;-36
2022/07/04 07:24:08;;;;;;;;;;;;;;;24.85;53.45;100945.06;7407929;19;1615;-37
2022/07/04 07:26:39;;;;;;;;;;;;;;;24.85;53.78;100941.50;7408246;19;1495;-35
2022/07/04 07:29:09;;;;;;;;;;;;;;;24.84;53.59;100943.38;7408391;19;1801;-35
2022/07/04 07:31:40;;;;;;;;;;;;;;;24.83;53.65;100928.16;7407708;19;1546;-35
2022/07/04 07:34:08;;;;;;;;;;;;;;;24.85;53.97;100942.38;7405098;19;2024;-36
2022/07/04 07:36:44;;;;;;;;;;;;;;;24.86;53.58;100922.41;7404430;19;1457;-36
2022/07/04 07:39:23;;;;;;;;;;;;;;;24.83;53.63;100922.75;7406319;19;1539;-36
2022/07/04 07:41:51;;;;;;;;;;;;;;;24.89;53.92;100943.72;7406138;19;1572;-36
2022/07/04 07:44:20;;;;;;;;;;;;;;;24.85;53.90;100926.13;7405816;19;1590;-35
2022/07/04 07:46:56;;;;;;;;;;;;;;;24.86;53.89;100921.56;7405984;19;1579;-36
2022/07/04 07:49:31;;;;;;;;;;;;;;;24.85;53.79;100928.84;7404513;19;1861;-35
2022/07/04 07:52:04;;;;;;;;;;;;;;;24.90;54.17;100931.84;7406180;19;1554;-36
2022/07/04 07:54:33;;;;;;;;;;;;;;;24.88;53.87;100939.31;7404453;19;1865;-36
2022/07/04 07:57:05;;;;;;;;;;;;;;;24.85;53.73;100919.84;7405847;19;1641;-36
2022/07/04 07:59:36;;;;;;;;;;;;;;;24.87;54.11;100920.53;7403973;19;1884;-35
2022/07/04 08:02:05;;;;;;;;;;;;;;;24.86;53.97;100911.56;7403485;19;1456;-35
2022/07/04 08:04:37;;;;;;;;;;;;;;;24.86;54.36;100919.69;7404122;19;1621;-35
2022/07/04 08:07:12;;;;;;;;;;;;;;;24.87;54.39;100912.41;7406424;19;1625;-36
2022/07/04 08:09:45;;;;;;;;;;;;;;;24.92;54.12;100918.16;7404849;19;1910;-36
2022/07/04 08:12:19;;;;;;;;;;;;;;;24.90;54.53;100925.63;7404512;19;1793;-36
2022/07/04 08:14:48;;;;;;;;;;;;;;;24.89;54.42;100916.66;7401618;19;1864;-36
2022/07/04 08:17:16;;;;;;;;;;;;;;;24.91;54.63;100920.03;7402446;19;1995;-36
2022/07/04 08:19:49;;;;;;;;;;;;;;;24.91;54.71;100922.75;7405752;19;1492;-35
2022/07/04 08:22:20;;;;;;;;;;;;;;;24.86;54.83;100922.41;7404221;19;1883;-36
2022/07/04 08:24:48;;;;;;;;;;;;;;;24.84;54.79;100908.19;7402577;19;1564;-36
2022/07/04 08:27:17;;;;;;;;;;;;;;;24.86;55.09;100914.28;7404779;19;1515;-35
2022/07/04 08:29:45;;;;;;;;;;;;;;;24.92;55.03;100924.41;7404286;19;1712;-35
2022/07/04 08:32:16;;;;;;;;;;;;;;;24.91;55.84;100925.44;7404935;19;1737;-36
2022/07/04 08:34:46;;;;;;;;;;;;;;;24.92;56.46;100901.94;7401063;19;1877;-35
2022/07/04 08:37:15;;;;;;;;;;;;;;;25.00;56.14;100929.81;7402671;19;1708;-36
2022/07/04 08:39:46;;;;;;;;;;;;;;;24.96;55.92;100912.22;7404022;19;1871;-36
2022/07/04 08:42:18;;;;;;;;;;;;;;;24.90;57.17;100909.38;7405616;19;2178;-36
2022/07/04 08:44:52;;;;;;;;;;;;;;;24.90;57.62;100915.63;7405265;19;1469;-36
2022/07/04 08:47:21;;;;;;;;;;;;;;;24.90;56.60;100904.81;7403272;19;1755;-36
2022/07/04 08:49:54;;;;;;;;;;;;;;;24.92;57.16;100905.47;7405188;19;1505;-36
2022/07/04 08:52:30;;;;;;;;;;;;;;;24.92;56.51;100889.25;7405041;19;1906;-36
2022/07/04 09:00:22;;;;;;;;;;;;;;;24.97;56.81;100910.41;7405021;19;3033;-36
2022/07/04 09:02:50;;;;;;;;;;;;;;;24.92;57.13;100899.22;7401399;19;1752;-36
2022/07/04 09:05:19;;;;;;;;;;;;;;;24.92;57.23;100899.22;7401782;19;1686;-36
2022/07/04 09:07:47;;;;;;;;;;;;;;;24.93;56.88;100885.53;7403696;19;1833;-36
2022/07/04 09:10:19;;;;;;;;;;;;;;;24.91;56.90;100897.53;7401051;19;1485;-37
2022/07/04 09:12:47;;;;;;;;;;;;;;;24.92;56.89;100888.41;7400644;19;1845;-36
2022/07/04 09:15:23;;;;;;;;;;;;;;;24.93;56.95;100900.91;7397100;19;1846;-36
2022/07/04 09:17:54;;;;;;;;;;;;;;;24.92;56.82;100891.13;7401816;19;1828;-36
2022/07/04 09:20:24;;;;;;;;;;;;;;;24.92;56.80;100904.66;7404198;19;1681;-35
2022/07/04 09:22:53;;;;;;;;;;;;;;;24.93;57.02;100887.38;7400294;19;2081;-35
2022/07/04 09:25:25;;;;;;;;;;;;;;;24.92;56.71;100881.13;7405563;19;1755;-35
2022/07/04 09:27:55;;;;;;;;;;;;;;;24.98;56.74;100903.94;7402392;19;1624;-35
2022/07/04 09:30:24;;;;;;;;;;;;;;;24.96;57.05;100898.72;7401809;19;1470;-35
2022/07/04 09:32:59;;;;;;;;;;;;;;;24.93;57.22;100877.44;7402680;19;1743;-36
2022/07/04 09:35:28;;;;;;;;;;;;;;;24.94;58.29;100865.56;7401436;19;1861;-35
2022/07/04 09:37:59;;;;;;;;;;;;;;;24.93;57.61;100880.13;7401984;19;1674;-35
2022/07/04 09:40:31;;;;;;;;;;;;;;;24.97;57.47;100896.88;7403352;19;1488;-35
2022/07/04 09:43:01;;;;;;;;;;;;;;;24.95;57.38;100888.09;7403496;19;1413;-35
2022/07/04 09:45:30;;;;;;;;;;;;;;;24.91;57.39;100874.06;7401850;19;1685;-35
2022/07/04 09:48:00;;;;;;;;;;;;;;;24.90;57.23;100866.94;7400810;19;1760;-35
2022/07/04 09:50:29;;;;;;;;;;;;;;;24.91;57.50;100867.78;7402921;19;1651;-35
2022/07/04 09:52:59;;;;;;;;;;;;;;;24.93;57.41;100868.44;7402955;19;2057;-36
2022/07/04 09:55:31;;;;;;;;;;;;;;;24.90;57.16;100860.69;7401379;19;1844;-36
2022/07/04 09:58:00;;;;;;;;;;;;;;;24.91;57.81;100859.66;7403316;19;1670;-35
2022/07/04 10:00:29;;;;;;;;;;;;;;;24.89;57.45;100867.97;7403317;19;1320;-35
2022/07/04 10:02:59;;;;;;;;;;;;;;;24.90;57.84;100861.53;7401130;19;1876;-36
2022/07/04 10:05:29;;;;;;;;;;;;;;;24.90;57.53;100856.13;7401431;19;1883;-36
2022/07/04 10:07:59;;;;;;;;;;;;;;;24.89;57.65;100840.91;7402717;19;1668;-36
2022/07/04 10:10:29;;;;;;;;;;;;;;;24.92;57.71;100856.78;7401259;19;1691;-37
2022/07/04 10:13:00;;;;;;;;;;;;;;;24.90;57.63;100842.59;7400620;19;1775;-36
2022/07/04 10:15:28;;;;;;;;;;;;;;;24.91;57.78;100843.44;7401044;19;1869;-36
2022/07/04 10:17:57;;;;;;;;;;;;;;;24.92;57.81;100856.78;7400840;19;1646;-36
2022/07/04 10:20:25;;;;;;;;;;;;;;;24.87;57.51;100837.53;7400561;19;1439;-36
2022/07/04 10:22:53;;;;;;;;;;;;;;;24.91;57.83;100838.88;7401443;19;1933;-36
2022/07/04 10:25:22;;;;;;;;;;;;;;;24.94;57.92;100853.91;7402132;19;1442;-37
2022/07/04 10:27:51;;;;;;;;;;;;;;;24.92;57.98;100855.94;7401328;19;1483;-36
2022/07/04 10:30:24;;;;;;;;;;;;;;;24.92;57.61;100850.53;7401274;19;1908;-36
2022/07/04 10:32:53;;;;;;;;;;;;;;;24.87;57.78;100840.25;7400035;19;1609;-36
2022/07/04 10:35:48;;;;;;;;;;;;;;;24.94;57.96;100848.50;7399496;19;1850;-36
2022/07/04 10:38:18;;;;;;;;;;;;;;;24.87;58.11;100834.84;7402186;19;2001;-36
2022/07/04 10:40:48;;;;;;;;;;;;;;;24.93;58.21;100841.38;7400751;19;1684;-36
2022/07/04 10:43:34;;;;;;;;;;;;;;;24.86;58.07;100825.03;7400933;19;1426;-36
2022/07/04 10:46:24;;;;;;;;;;;;;;;24.89;58.06;100824.69;7401805;19;1843;-35
2022/07/04 10:48:53;;;;;;;;;;;;;;;24.86;58.50;100825.03;7401296;19;1667;-36
2022/07/04 10:51:34;;;;;;;;;;;;;;;24.86;58.51;100819.63;7399525;19;1537;-36
2022/07/04 10:54:03;;;;;;;;;;;;;;;24.85;58.15;100827.88;7400995;19;1852;-36
2022/07/04 10:56:37;;;;;;;;;;;;;;;24.87;58.39;100821.31;7399866;19;1652;-36
2022/07/04 10:59:10;;;;;;;;;;;;;;;24.87;58.48;100821.31;7399376;19;1579;-35
2022/07/04 11:01:41;;;;;;;;;;;;;;;24.88;58.64;100811.34;7399121;19;1560;-36
2022/07/04 11:04:10;;;;;;;;;;;;;;;24.86;58.41;100803.38;7401340;19;1679;-35
2022/07/04 11:06:55;;;;;;;;;;;;;;;24.84;58.75;100797.31;7400509;19;1610;-36
2022/07/04 11:09:24;;;;;;;;;;;;;;;24.85;58.43;100803.53;7400116;19;1358;-36
2022/07/04 11:11:53;;;;;;;;;;;;;;;24.87;58.86;100804.22;7400998;19;1964;-36
2022/07/04 11:14:34;;;;;;;;;;;;;;;24.87;58.66;100802.38;7399610;19;1864;-36
2022/07/04 11:17:05;;;;;;;;;;;;;;;24.84;58.72;100789.19;7401442;19;1540;-36
2022/07/04 11:19:34;;;;;;;;;;;;;;;24.85;58.85;100785.47;7400734;19;1729;-36
2022/07/04 11:22:12;;;;;;;;;;;;;;;;;;;;;
2022/07/04 11:24:41;;;;;;;;;;;;;;;24.92;58.58;100780.22;7396533;19;1453;-35
2022/07/04 11:27:10;;;;;;;;;;;;;;;24.88;58.62;100768.88;7400637;19;1625;-36
2022/07/04 11:29:38;;;;;;;;;;;;;;;24.87;58.64;100766.34;7401226;19;1666;-35
2022/07/04 11:32:09;;;;;;;;;;;;;;;24.86;58.79;100762.81;7400701;19;1751;-35
2022/07/04 11:34:43;;;;;;;;;;;;;;;24.86;58.91;100760.09;7398532;19;1860;-35
2022/07/04 11:37:12;;;;;;;;;;;;;;;24.88;58.64;100760.78;7397793;19;1716;-35
2022/07/04 11:39:40;;;;;;;;;;;;;;;24.89;58.53;100775.13;7399436;19;1778;-36
2022/07/04 11:47:38;;;;;;;;;;;;;;;24.90;58.89;100769.56;7406695;19;1525;-35
2022/07/04 11:50:08;;;;;;;;;;;;;;;24.81;59.43;100748.97;7405597;19;1494;-36
2022/07/04 11:52:46;;;;;;;;;;;;;;;24.87;59.24;100760.94;7405158;19;1811;-36
2022/07/04 11:55:16;;;;;;;;;;;;;;;24.88;59.43;100776.16;7404143;19;1857;-35
2022/07/04 11:57:45;;;;;;;;;;;;;;;24.85;59.49;100738.63;7401994;19;1643;-36
2022/07/04 12:00:14;;;;;;;;;;;;;;;24.88;59.71;100763.47;7405067;19;1674;-36
2022/07/04 12:02:47;;;;;;;;;;;;;;;24.88;59.35;100747.25;7403740;19;1908;-36
2022/07/04 12:05:16;;;;;;;;;;;;;;;24.93;59.23;100750.28;7404683;19;1696;-36
2022/07/04 12:07:45;;;;;;;;;;;;;;;24.97;59.08;100757.03;7405721;19;1496;-37
2022/07/04 12:10:15;;;;;;;;;;;;;;;24.95;59.73;100737.44;7406121;19;1655;-36
2022/07/04 12:12:56;;;;;;;;;;;;;;;24.97;59.63;100743.50;7405434;19;1719;-35
2022/07/04 12:15:25;;;;;;;;;;;;;;;24.98;60.02;100738.94;7403623;19;1855;-37
2022/07/04 12:17:56;;;;;;;;;;;;;;;25.04;59.67;100745.50;7404753;19;1486;-36
2022/07/04 12:20:26;;;;;;;;;;;;;;;25.04;59.87;100745.50;7405036;19;1571;-35
2022/07/04 12:22:55;;;;;;;;;;;;;;;25.04;60.01;100750.91;7406752;19;1766;-35
2022/07/04 12:25:25;;;;;;;;;;;;;;;25.09;59.80;100753.91;7403674;19;1450;-36
2022/07/04 12:27:57;;;;;;;;;;;;;;;24.96;60.65;100749.06;7401088;19;1491;-35
2022/07/04 12:30:26;;;;;;;;;;;;;;;24.98;60.17;100753.28;7405108;19;1796;-35
2022/07/04 12:32:59;;;;;;;;;;;;;;;25.00;60.16;100756.66;7404796;19;1847;-35
2022/07/04 12:35:34;;;;;;;;;;;;;;;25.01;60.15;100754.81;7403171;19;1855;-35
2022/07/04 12:38:03;;;;;;;;;;;;;;;25.04;60.46;100754.44;7405332;19;1515;-36
2022/07/04 12:40:32;;;;;;;;;;;;;;;25.07;60.18;100750.53;7405678;19;1550;-36
2022/07/04 12:43:00;;;;;;;;;;;;;;;25.06;60.32;100754.28;7406000;19;2033;-35
2022/07/04 12:45:38;;;;;;;;;;;;;;;25.09;59.81;100748.50;7404972;19;1643;-35
2022/07/04 12:48:16;;;;;;;;;;;;;;;25.07;60.56;100745.13;7404676;19;1742;-35
2022/07/04 12:50:44;;;;;;;;;;;;;;;25.09;60.89;100743.09;7404121;19;1483;-36
2022/07/04 12:53:13;;;;;;;;;;;;;;;25.07;60.82;100739.72;7403040;19;1477;-35
2022/07/04 12:55:42;;;;;;;;;;;;;;;25.10;60.25;100742.91;7402166;19;1867;-35
2022/07/04 12:58:11;;;;;;;;;;;;;;;25.11;60.58;100735.63;7401807;19;1503;-36
2022/07/04 13:00:40;;;;;;;;;;;;;;;25.11;61.01;100725.69;7404407;19;1482;-35
2022/07/04 13:03:11;;;;;;;;;;;;;;;25.20;60.98;100743.53;7403771;19;1654;-36
2022/07/04 13:05:40;;;;;;;;;;;;;;;25.22;60.79;100726.31;7405980;19;1590;-36
2022/07/04 13:08:08;;;;;;;;;;;;;;;25.21;61.11;100733.59;7406316;19;1426;-35
2022/07/04 13:10:37;;;;;;;;;;;;;;;25.27;61.08;100732.03;7404990;19;1668;-35
2022/07/04 13:13:05;;;;;;;;;;;;;;;25.25;61.99;100720.53;7404920;19;1592;-36
2022/07/04 13:15:34;;;;;;;;;;;;;;;25.22;61.77;100705.50;7406417;19;1857;-35
2022/07/04 13:18:03;;;;;;;;;;;;;;;25.27;62.07;100716.66;7405633;19;1669;-36
2022/07/04 13:20:34;;;;;;;;;;;;;;;25.35;63.19;100713.06;7404002;19;1479;-36
2022/07/04 13:23:02;;;;;;;;;;;;;;;25.33;63.09;100715.94;7402114;19;1571;-36
2022/07/04 13:25:30;;;;;;;;;;;;;;;25.32;63.49;100705.28;7403822;19;1532;-36
2022/07/04 13:27:59;;;;;;;;;;;;;;;25.31;64.15;100696.34;7406938;19;1682;-35
2022/07/04 13:30:27;;;;;;;;;;;;;;;25.06;65.53;100709.13;7403936;19;1895;-36
2022/07/04 13:32:56;;;;;;;;;;;;;;;24.78;65.32;100716.88;7404280;19;1606;-36
2022/07/04 13:35:24;;;;;;;;;;;;;;;24.55;64.29;100709.50;7402277;19;1840;-36